Jpo Gemini — A8VF7 — position and weather

sailwx.info

Track history (hours):
 
Tides and Currents Weather Stations Pressure Air Temp Water Temp Dewpoint Dewpoint Depression Visibility Wind Speed Wind Dir Waves Ship Positions

Jpo Gemini

Last reported at 2017-Feb-25 13:23 UTC. Time now 2017-Feb-25 13:49 UTC.
Position N 05°16' W 004°01'.

Length 207 m; draft 11 m.

Type: Cargo ship. MMSI: 636091995.

Date/timePositionNaut miles runAvg speedWind from/ knotsBaromVisibWave heightAir tempDewpointWater temp
2017-Feb-25 13:23N 05°16' W 004°01'0 0.0
2017-Feb-25 10:29N 05°16' W 004°01'0 0.0
2017-Feb-25 09:17N 05°16' W 004°01'0 0.0
2017-Feb-25 08:23N 05°16' W 004°01'0 0.0
2017-Feb-25 06:29N 05°16' W 004°01'0 0.0
2017-Feb-25 05:23N 05°16' W 004°01'0 0.0
2017-Feb-25 04:32N 05°16' W 004°01'0 0.0
2017-Feb-25 02:26N 05°16' W 004°01'0 0.0
2017-Feb-25 01:26N 05°16' W 004°01'0 0.0
2017-Feb-25 00:26N 05°16' W 004°01'0 0.0
2017-Feb-24 23:20N 05°16' W 004°01'0 0.0
2017-Feb-24 22:20N 05°16' W 004°01'0 0.0
2017-Feb-24 20:26N 05°16' W 004°01'0 0.0
2017-Feb-24 19:32N 05°16' W 004°01'2 2.4
2017-Feb-24 18:33N 05°14' W 003°59'6 6.3
2017-Feb-24 17:33N 05°08' W 004°02'2 0.8
2017-Feb-24 14:27N 05°06' W 004°03'57815.0
2017-Feb-23 00:00N 07°12' W 013°30'38616.1 230 / 101014.010.8 27.022.8
2017-Feb-22 00:00N 12°12' W 017°36'3715.1 050 / 151015.5 5.4 20.016.9
2017-Feb-21 21:32N 12°48' W 017°46'5517.1
2017-Feb-21 18:20N 13°42' W 017°48'1517.3
2017-Feb-21 17:28N 13°57' W 017°47'6917.0
2017-Feb-21 13:26N 15°06' W 017°47'1517.0
2017-Feb-21 12:33N 15°21' W 017°46'1917.1
2017-Feb-21 11:25N 15°40' W 017°45'1617.4
2017-Feb-21 10:30N 15°56' W 017°45'18417.5
2017-Feb-21 00:00N 19°00' W 017°36'61316.8 010 / 181017.010.8 17.515.1
2017-Feb-19 11:25N 28°26' W 013°18'1517.4
2017-Feb-19 10:32N 28°39' W 013°08'1817.6
2017-Feb-19 09:32N 28°53' W 012°57'54517.3
2017-Feb-18 02:06N 35°50' W 006°01'917.3
2017-Feb-18 01:33N 35°55' W 005°51'1616.3
2017-Feb-18 00:33N 35°58' W 005°31'1212.0
2017-Feb-17 23:33N 36°09' W 005°25'1 1.0
2017-Feb-17 22:32N 36°09' W 005°26'0 0.0
2017-Feb-17 21:32N 36°09' W 005°26'0 0.0
2017-Feb-17 20:32N 36°09' W 005°26'0 0.0
2017-Feb-17 19:32N 36°09' W 005°26'0 0.0
2017-Feb-17 18:32N 36°09' W 005°26'0 0.0
2017-Feb-17 17:32N 36°09' W 005°26'0 0.0
2017-Feb-17 16:32N 36°09' W 005°26'0 0.0
2017-Feb-17 15:32N 36°09' W 005°26'0 0.0
2017-Feb-17 14:32N 36°09' W 005°26'0 0.0
2017-Feb-17 13:32N 36°09' W 005°26'0 0.0
2017-Feb-17 12:32N 36°09' W 005°26'0 0.0
2017-Feb-17 11:32N 36°09' W 005°26'0 0.0
2017-Feb-17 06:33N 36°09' W 005°26'4 4.0
2017-Feb-17 05:34N 36°06' W 005°23'4 3.9
2017-Feb-17 04:34N 36°04' W 005°19'1 1.1
2017-Feb-17 03:33N 36°03' W 005°19'13 1.4
2017-Feb-16 18:33N 35°53' W 005°30'0 0.0
2017-Feb-16 17:30N 35°53' W 005°30'0 0.0
2017-Feb-16 16:33N 35°53' W 005°30'0 0.0
2017-Feb-16 15:33N 35°53' W 005°30'0 0.0
2017-Feb-16 14:30N 35°53' W 005°30'0 0.0
2017-Feb-16 13:33N 35°53' W 005°30'0 0.0
2017-Feb-16 12:33N 35°53' W 005°30'0 0.0
2017-Feb-16 11:30N 35°53' W 005°30'0 0.0
2017-Feb-16 10:33N 35°53' W 005°30'0 0.0
2017-Feb-16 09:33N 35°53' W 005°30'0 0.0
2017-Feb-16 08:33N 35°53' W 005°30'2 0.4
2017-Feb-16 04:29N 35°55' W 005°31'2 2.2
2017-Feb-16 03:32N 35°55' W 005°33'5 4.7
2017-Feb-16 02:33N 35°54' W 005°39'8 7.5
2017-Feb-16 01:30N 35°56' W 005°49'5 4.4
2017-Feb-16 00:26N 35°57' W 005°43'1112.1
2017-Feb-15 23:33N 35°59' W 005°30'1110.7
2017-Feb-15 22:33N 36°01' W 005°17'8 8.2
2017-Feb-15 21:33N 36°06' W 005°10'  
Track history (hours):
 
Tides and Currents Weather Stations Pressure Air Temp Water Temp Dewpoint Dewpoint Depression Visibility Wind Speed Wind Dir Waves Ship Positions

Jpo Gemini

Last reported at 2017-Feb-25 13:23 UTC. Time now 2017-Feb-25 13:49 UTC.
Position N 05°16' W 004°01'.

Length 207 m; draft 11 m.

Type: Cargo ship. MMSI: 636091995.

Date/timePositionNaut miles runAvg speedWind from/ knotsBaromVisibWave heightAir tempDewpointWater temp
2017-Feb-25 13:23N 05°16' W 004°01'0 0.0
2017-Feb-25 10:29N 05°16' W 004°01'0 0.0
2017-Feb-25 09:17N 05°16' W 004°01'0 0.0
2017-Feb-25 08:23N 05°16' W 004°01'0 0.0
2017-Feb-25 06:29N 05°16' W 004°01'0 0.0
2017-Feb-25 05:23N 05°16' W 004°01'0 0.0
2017-Feb-25 04:32N 05°16' W 004°01'0 0.0
2017-Feb-25 02:26N 05°16' W 004°01'0 0.0
2017-Feb-25 01:26N 05°16' W 004°01'0 0.0
2017-Feb-25 00:26N 05°16' W 004°01'0 0.0
2017-Feb-24 23:20N 05°16' W 004°01'0 0.0
2017-Feb-24 22:20N 05°16' W 004°01'0 0.0
2017-Feb-24 20:26N 05°16' W 004°01'0 0.0
2017-Feb-24 19:32N 05°16' W 004°01'2 2.4
2017-Feb-24 18:33N 05°14' W 003°59'6 6.3
2017-Feb-24 17:33N 05°08' W 004°02'2 0.8
2017-Feb-24 14:27N 05°06' W 004°03'57815.0
2017-Feb-23 00:00N 07°12' W 013°30'38616.1 230 / 101014.010.8 27.022.8
2017-Feb-22 00:00N 12°12' W 017°36'3715.1 050 / 151015.5 5.4 20.016.9
2017-Feb-21 21:32N 12°48' W 017°46'5517.1
2017-Feb-21 18:20N 13°42' W 017°48'1517.3
2017-Feb-21 17:28N 13°57' W 017°47'6917.0
2017-Feb-21 13:26N 15°06' W 017°47'1517.0
2017-Feb-21 12:33N 15°21' W 017°46'1917.1
2017-Feb-21 11:25N 15°40' W 017°45'1617.4
2017-Feb-21 10:30N 15°56' W 017°45'18417.5
2017-Feb-21 00:00N 19°00' W 017°36'61316.8 010 / 181017.010.8 17.515.1
2017-Feb-19 11:25N 28°26' W 013°18'1517.4
2017-Feb-19 10:32N 28°39' W 013°08'1817.6
2017-Feb-19 09:32N 28°53' W 012°57'54517.3
2017-Feb-18 02:06N 35°50' W 006°01'917.3
2017-Feb-18 01:33N 35°55' W 005°51'1616.3
2017-Feb-18 00:33N 35°58' W 005°31'1212.0
2017-Feb-17 23:33N 36°09' W 005°25'1 1.0
2017-Feb-17 22:32N 36°09' W 005°26'0 0.0
2017-Feb-17 21:32N 36°09' W 005°26'0 0.0
2017-Feb-17 20:32N 36°09' W 005°26'0 0.0
2017-Feb-17 19:32N 36°09' W 005°26'0 0.0
2017-Feb-17 18:32N 36°09' W 005°26'0 0.0
2017-Feb-17 17:32N 36°09' W 005°26'0 0.0
2017-Feb-17 16:32N 36°09' W 005°26'0 0.0
2017-Feb-17 15:32N 36°09' W 005°26'0 0.0
2017-Feb-17 14:32N 36°09' W 005°26'0 0.0
2017-Feb-17 13:32N 36°09' W 005°26'0 0.0
2017-Feb-17 12:32N 36°09' W 005°26'0 0.0
2017-Feb-17 11:32N 36°09' W 005°26'0 0.0
2017-Feb-17 06:33N 36°09' W 005°26'4 4.0
2017-Feb-17 05:34N 36°06' W 005°23'4 3.9
2017-Feb-17 04:34N 36°04' W 005°19'1 1.1
2017-Feb-17 03:33N 36°03' W 005°19'13 1.4
2017-Feb-16 18:33N 35°53' W 005°30'0 0.0
2017-Feb-16 17:30N 35°53' W 005°30'0 0.0
2017-Feb-16 16:33N 35°53' W 005°30'0 0.0
2017-Feb-16 15:33N 35°53' W 005°30'0 0.0
2017-Feb-16 14:30N 35°53' W 005°30'0 0.0
2017-Feb-16 13:33N 35°53' W 005°30'0 0.0
2017-Feb-16 12:33N 35°53' W 005°30'0 0.0
2017-Feb-16 11:30N 35°53' W 005°30'0 0.0
2017-Feb-16 10:33N 35°53' W 005°30'0 0.0
2017-Feb-16 09:33N 35°53' W 005°30'0 0.0
2017-Feb-16 08:33N 35°53' W 005°30'2 0.4
2017-Feb-16 04:29N 35°55' W 005°31'2 2.2
2017-Feb-16 03:32N 35°55' W 005°33'5 4.7
2017-Feb-16 02:33N 35°54' W 005°39'8 7.5
2017-Feb-16 01:30N 35°56' W 005°49'5 4.4
2017-Feb-16 00:26N 35°57' W 005°43'1112.1
2017-Feb-15 23:33N 35°59' W 005°30'1110.7
2017-Feb-15 22:33N 36°01' W 005°17'8 8.2
2017-Feb-15 21:33N 36°06' W 005°10'  

Dump ship's entire track history